sensor_id;sensor_type;location;lat;lon;timestamp;P1;durP1;ratioP1;P2;durP2;ratioP2
43552;SDS011;29153;42.696;23.218;2023-02-28T00:01:24;14.83;;;5.83;;
43552;SDS011;29153;42.696;23.218;2023-02-28T00:03:52;15.53;;;7.00;;
43552;SDS011;29153;42.696;23.218;2023-02-28T00:06:20;12.35;;;6.28;;
43552;SDS011;29153;42.696;23.218;2023-02-28T00:08:47;14.00;;;7.03;;
43552;SDS011;29153;42.696;23.218;2023-02-28T00:11:15;16.25;;;7.22;;
43552;SDS011;29153;42.696;23.218;2023-02-28T00:13:44;19.82;;;7.65;;
43552;SDS011;29153;42.696;23.218;2023-02-28T00:16:14;14.33;;;6.72;;
43552;SDS011;29153;42.696;23.218;2023-02-28T00:18:43;17.15;;;7.92;;
43552;SDS011;29153;42.696;23.218;2023-02-28T00:21:12;17.62;;;8.08;;
43552;SDS011;29153;42.696;23.218;2023-02-28T00:23:40;14.78;;;6.37;;
43552;SDS011;29153;42.696;23.218;2023-02-28T00:26:08;14.63;;;5.92;;
43552;SDS011;29153;42.696;23.218;2023-02-28T00:28:35;12.50;;;5.65;;
43552;SDS011;29153;42.696;23.218;2023-02-28T00:31:03;16.05;;;7.62;;
43552;SDS011;29153;42.696;23.218;2023-02-28T00:33:30;27.85;;;11.73;;
43552;SDS011;29153;42.696;23.218;2023-02-28T00:36:08;27.05;;;10.58;;
43552;SDS011;29153;42.696;23.218;2023-02-28T00:38:37;25.43;;;10.93;;
43552;SDS011;29153;42.696;23.218;2023-02-28T00:43:33;25.52;;;10.13;;
43552;SDS011;29153;42.696;23.218;2023-02-28T00:46:03;30.92;;;12.75;;
43552;SDS011;29153;42.696;23.218;2023-02-28T00:48:31;29.42;;;11.97;;
43552;SDS011;29153;42.696;23.218;2023-02-28T00:50:59;29.75;;;12.55;;
43552;SDS011;29153;42.696;23.218;2023-02-28T00:53:26;33.23;;;12.23;;
43552;SDS011;29153;42.696;23.218;2023-02-28T00:55:54;28.02;;;11.10;;
43552;SDS011;29153;42.696;23.218;2023-02-28T00:58:22;24.98;;;11.00;;
43552;SDS011;29153;42.696;23.218;2023-02-28T01:00:50;24.77;;;9.33;;
43552;SDS011;29153;42.696;23.218;2023-02-28T01:03:19;31.73;;;11.08;;
43552;SDS011;29153;42.696;23.218;2023-02-28T01:05:48;38.13;;;12.98;;
43552;SDS011;29153;42.696;23.218;2023-02-28T01:08:15;30.40;;;11.80;;
43552;SDS011;29153;42.696;23.218;2023-02-28T01:10:43;35.38;;;13.18;;
43552;SDS011;29153;42.696;23.218;2023-02-28T01:13:11;38.05;;;12.05;;
43552;SDS011;29153;42.696;23.218;2023-02-28T01:15:39;44.63;;;13.75;;
43552;SDS011;29153;42.696;23.218;2023-02-28T01:18:09;35.05;;;12.23;;
43552;SDS011;29153;42.696;23.218;2023-02-28T01:20:37;48.28;;;14.23;;
43552;SDS011;29153;42.696;23.218;2023-02-28T01:23:04;31.25;;;11.45;;
43552;SDS011;29153;42.696;23.218;2023-02-28T01:25:34;28.95;;;10.40;;
43552;SDS011;29153;42.696;23.218;2023-02-28T01:28:02;31.00;;;10.13;;
43552;SDS011;29153;42.696;23.218;2023-02-28T01:30:30;26.17;;;10.10;;
43552;SDS011;29153;42.696;23.218;2023-02-28T01:32:58;26.93;;;9.80;;
43552;SDS011;29153;42.696;23.218;2023-02-28T01:35:26;29.98;;;9.60;;
43552;SDS011;29153;42.696;23.218;2023-02-28T01:37:54;25.15;;;10.08;;
43552;SDS011;29153;42.696;23.218;2023-02-28T01:40:21;28.10;;;10.10;;
43552;SDS011;29153;42.696;23.218;2023-02-28T01:42:49;31.07;;;10.30;;
43552;SDS011;29153;42.696;23.218;2023-02-28T01:45:28;35.73;;;11.15;;
43552;SDS011;29153;42.696;23.218;2023-02-28T01:47:54;38.25;;;12.90;;
43552;SDS011;29153;42.696;23.218;2023-02-28T01:50:34;33.88;;;11.25;;
43552;SDS011;29153;42.696;23.218;2023-02-28T01:53:04;39.25;;;11.70;;
43552;SDS011;29153;42.696;23.218;2023-02-28T01:55:33;34.35;;;11.45;;
43552;SDS011;29153;42.696;23.218;2023-02-28T01:58:02;41.70;;;12.53;;
43552;SDS011;29153;42.696;23.218;2023-02-28T02:00:32;33.70;;;11.30;;
43552;SDS011;29153;42.696;23.218;2023-02-28T02:03:01;27.48;;;10.08;;
43552;SDS011;29153;42.696;23.218;2023-02-28T02:05:30;24.67;;;9.35;;
43552;SDS011;29153;42.696;23.218;2023-02-28T02:08:03;25.45;;;10.40;;
43552;SDS011;29153;42.696;23.218;2023-02-28T02:10:33;28.47;;;10.05;;
43552;SDS011;29153;42.696;23.218;2023-02-28T02:13:20;38.17;;;11.35;;
43552;SDS011;29153;42.696;23.218;2023-02-28T02:33:23;48.02;;;10.93;;
43552;SDS011;29153;42.696;23.218;2023-02-28T02:36:01;42.03;;;9.30;;
43552;SDS011;29153;42.696;23.218;2023-02-28T02:38:56;72.35;;;10.60;;
43552;SDS011;29153;42.696;23.218;2023-02-28T02:41:38;71.65;;;10.58;;
43552;SDS011;29153;42.696;23.218;2023-02-28T02:44:27;56.33;;;9.63;;
43552;SDS011;29153;42.696;23.218;2023-02-28T02:47:01;83.33;;;10.50;;
43552;SDS011;29153;42.696;23.218;2023-02-28T02:49:30;77.70;;;9.38;;
43552;SDS011;29153;42.696;23.218;2023-02-28T02:52:01;101.07;;;9.80;;
43552;SDS011;29153;42.696;23.218;2023-02-28T02:54:34;118.25;;;10.95;;
43552;SDS011;29153;42.696;23.218;2023-02-28T02:57:01;114.88;;;11.05;;
43552;SDS011;29153;42.696;23.218;2023-02-28T02:59:35;88.47;;;9.28;;
43552;SDS011;29153;42.696;23.218;2023-02-28T03:02:06;52.67;;;8.85;;
43552;SDS011;29153;42.696;23.218;2023-02-28T03:04:38;50.43;;;9.00;;
43552;SDS011;29153;42.696;23.218;2023-02-28T03:07:05;50.05;;;8.70;;
43552;SDS011;29153;42.696;23.218;2023-02-28T03:09:33;57.10;;;9.03;;
43552;SDS011;29153;42.696;23.218;2023-02-28T03:12:04;62.45;;;9.33;;
43552;SDS011;29153;42.696;23.218;2023-02-28T03:19:59;42.30;;;7.65;;
43552;SDS011;29153;42.696;23.218;2023-02-28T03:27:29;46.45;;;7.30;;
43552;SDS011;29153;42.696;23.218;2023-02-28T03:30:00;64.92;;;8.13;;
43552;SDS011;29153;42.696;23.218;2023-02-28T03:33:01;38.60;;;6.95;;
43552;SDS011;29153;42.696;23.218;2023-02-28T03:35:15;33.92;;;7.62;;
43552;SDS011;29153;42.696;23.218;2023-02-28T03:37:46;52.27;;;8.68;;
43552;SDS011;29153;42.696;23.218;2023-02-28T03:40:16;55.85;;;7.20;;
43552;SDS011;29153;42.696;23.218;2023-02-28T03:42:46;45.65;;;7.17;;
43552;SDS011;29153;42.696;23.218;2023-02-28T03:45:17;56.58;;;8.83;;
43552;SDS011;29153;42.696;23.218;2023-02-28T03:47:51;46.30;;;7.40;;
43552;SDS011;29153;42.696;23.218;2023-02-28T03:50:32;66.40;;;7.40;;
43552;SDS011;29153;42.696;23.218;2023-02-28T03:53:14;52.53;;;8.58;;
43552;SDS011;29153;42.696;23.218;2023-02-28T03:55:56;71.95;;;9.43;;
43552;SDS011;29153;42.696;23.218;2023-02-28T03:59:12;56.28;;;8.33;;
43552;SDS011;29153;42.696;23.218;2023-02-28T04:01:12;43.05;;;8.45;;
43552;SDS011;29153;42.696;23.218;2023-02-28T04:03:40;43.85;;;10.13;;
43552;SDS011;29153;42.696;23.218;2023-02-28T04:06:10;54.27;;;9.38;;
43552;SDS011;29153;42.696;23.218;2023-02-28T04:08:41;49.93;;;8.55;;
43552;SDS011;29153;42.696;23.218;2023-02-28T04:11:31;59.83;;;9.35;;
43552;SDS011;29153;42.696;23.218;2023-02-28T04:13:41;60.73;;;10.25;;
43552;SDS011;29153;42.696;23.218;2023-02-28T04:16:09;49.35;;;9.98;;
43552;SDS011;29153;42.696;23.218;2023-02-28T04:18:38;49.50;;;9.83;;
43552;SDS011;29153;42.696;23.218;2023-02-28T04:21:06;59.93;;;10.05;;
43552;SDS011;29153;42.696;23.218;2023-02-28T04:23:34;54.50;;;9.28;;
43552;SDS011;29153;42.696;23.218;2023-02-28T04:26:01;51.85;;;10.25;;
43552;SDS011;29153;42.696;23.218;2023-02-28T04:28:29;57.88;;;10.25;;
43552;SDS011;29153;42.696;23.218;2023-02-28T04:30:58;42.60;;;8.93;;
43552;SDS011;29153;42.696;23.218;2023-02-28T04:33:27;47.90;;;9.53;;
43552;SDS011;29153;42.696;23.218;2023-02-28T04:36:02;67.05;;;10.20;;
43552;SDS011;29153;42.696;23.218;2023-02-28T04:38:35;43.78;;;8.98;;
43552;SDS011;29153;42.696;23.218;2023-02-28T04:41:10;51.68;;;9.50;;
43552;SDS011;29153;42.696;23.218;2023-02-28T04:43:38;40.92;;;10.88;;
43552;SDS011;29153;42.696;23.218;2023-02-28T04:46:06;55.17;;;10.18;;
43552;SDS011;29153;42.696;23.218;2023-02-28T04:48:35;57.88;;;10.88;;
43552;SDS011;29153;42.696;23.218;2023-02-28T04:51:05;58.90;;;9.88;;
43552;SDS011;29153;42.696;23.218;2023-02-28T04:53:37;61.37;;;9.68;;
43552;SDS011;29153;42.696;23.218;2023-02-28T04:56:05;81.70;;;9.83;;
43552;SDS011;29153;42.696;23.218;2023-02-28T04:58:34;63.65;;;9.83;;
43552;SDS011;29153;42.696;23.218;2023-02-28T05:03:53;70.67;;;9.43;;
43552;SDS011;29153;42.696;23.218;2023-02-28T05:06:22;74.58;;;9.53;;
43552;SDS011;29153;42.696;23.218;2023-02-28T05:08:51;68.80;;;9.25;;
43552;SDS011;29153;42.696;23.218;2023-02-28T05:11:29;115.05;;;9.60;;
43552;SDS011;29153;42.696;23.218;2023-02-28T05:14:00;124.82;;;9.05;;
43552;SDS011;29153;42.696;23.218;2023-02-28T05:16:29;104.78;;;8.80;;
43552;SDS011;29153;42.696;23.218;2023-02-28T05:18:57;67.80;;;8.05;;
43552;SDS011;29153;42.696;23.218;2023-02-28T05:21:29;71.65;;;8.68;;
43552;SDS011;29153;42.696;23.218;2023-02-28T05:23:58;70.37;;;8.20;;
43552;SDS011;29153;42.696;23.218;2023-02-28T05:26:28;59.38;;;9.05;;
43552;SDS011;29153;42.696;23.218;2023-02-28T05:28:56;56.98;;;9.23;;
43552;SDS011;29153;42.696;23.218;2023-02-28T05:31:24;78.67;;;10.80;;
43552;SDS011;29153;42.696;23.218;2023-02-28T05:33:51;76.30;;;10.00;;
43552;SDS011;29153;42.696;23.218;2023-02-28T05:36:19;69.07;;;10.25;;
43552;SDS011;29153;42.696;23.218;2023-02-28T05:38:47;121.57;;;10.98;;
43552;SDS011;29153;42.696;23.218;2023-02-28T05:41:16;100.60;;;11.85;;
43552;SDS011;29153;42.696;23.218;2023-02-28T05:43:45;82.15;;;11.10;;
43552;SDS011;29153;42.696;23.218;2023-02-28T05:46:13;78.12;;;11.43;;
43552;SDS011;29153;42.696;23.218;2023-02-28T05:48:42;70.30;;;11.90;;
43552;SDS011;29153;42.696;23.218;2023-02-28T05:51:12;88.03;;;19.27;;
43552;SDS011;29153;42.696;23.218;2023-02-28T05:53:40;88.33;;;12.18;;
43552;SDS011;29153;42.696;23.218;2023-02-28T05:56:07;105.45;;;11.53;;
43552;SDS011;29153;42.696;23.218;2023-02-28T05:58:35;89.80;;;11.03;;
43552;SDS011;29153;42.696;23.218;2023-02-28T06:01:48;68.35;;;10.80;;
43552;SDS011;29153;42.696;23.218;2023-02-28T06:03:48;71.02;;;10.53;;
43552;SDS011;29153;42.696;23.218;2023-02-28T06:06:16;60.30;;;11.45;;
43552;SDS011;29153;42.696;23.218;2023-02-28T06:08:43;82.82;;;11.40;;
43552;SDS011;29153;42.696;23.218;2023-02-28T06:11:11;54.83;;;10.70;;
43552;SDS011;29153;42.696;23.218;2023-02-28T06:13:39;45.40;;;10.32;;
43552;SDS011;29153;42.696;23.218;2023-02-28T06:16:07;78.67;;;10.40;;
43552;SDS011;29153;42.696;23.218;2023-02-28T06:18:37;63.80;;;11.12;;
43552;SDS011;29153;42.696;23.218;2023-02-28T06:21:05;65.72;;;10.78;;
43552;SDS011;29153;42.696;23.218;2023-02-28T06:23:34;91.63;;;12.25;;
43552;SDS011;29153;42.696;23.218;2023-02-28T06:26:01;106.45;;;11.88;;
43552;SDS011;29153;42.696;23.218;2023-02-28T06:28:29;71.75;;;11.38;;
43552;SDS011;29153;42.696;23.218;2023-02-28T06:30:56;62.00;;;11.43;;
43552;SDS011;29153;42.696;23.218;2023-02-28T06:33:24;64.50;;;11.57;;
43552;SDS011;29153;42.696;23.218;2023-02-28T06:35:52;57.95;;;9.98;;
43552;SDS011;29153;42.696;23.218;2023-02-28T06:38:20;73.42;;;11.55;;
43552;SDS011;29153;42.696;23.218;2023-02-28T06:40:54;64.80;;;11.25;;
43552;SDS011;29153;42.696;23.218;2023-02-28T06:43:23;70.78;;;10.45;;
43552;SDS011;29153;42.696;23.218;2023-02-28T06:45:58;76.85;;;12.03;;
43552;SDS011;29153;42.696;23.218;2023-02-28T06:48:22;57.80;;;9.80;;
43552;SDS011;29153;42.696;23.218;2023-02-28T06:50:50;63.30;;;12.30;;
43552;SDS011;29153;42.696;23.218;2023-02-28T06:53:18;61.77;;;12.78;;
43552;SDS011;29153;42.696;23.218;2023-02-28T06:55:45;74.25;;;18.42;;
43552;SDS011;29153;42.696;23.218;2023-02-28T06:58:12;85.15;;;27.95;;
43552;SDS011;29153;42.696;23.218;2023-02-28T07:00:50;54.27;;;16.55;;
43552;SDS011;29153;42.696;23.218;2023-02-28T07:03:19;46.42;;;14.75;;
43552;SDS011;29153;42.696;23.218;2023-02-28T07:05:47;51.40;;;15.40;;
43552;SDS011;29153;42.696;23.218;2023-02-28T07:08:14;45.65;;;14.35;;
43552;SDS011;29153;42.696;23.218;2023-02-28T07:10:42;48.02;;;15.43;;
43552;SDS011;29153;42.696;23.218;2023-02-28T07:13:09;51.95;;;18.37;;
43552;SDS011;29153;42.696;23.218;2023-02-28T07:15:38;60.28;;;14.85;;
43552;SDS011;29153;42.696;23.218;2023-02-28T07:18:06;55.92;;;13.68;;
43552;SDS011;29153;42.696;23.218;2023-02-28T07:20:33;51.85;;;12.50;;
43552;SDS011;29153;42.696;23.218;2023-02-28T07:23:01;51.58;;;12.28;;
43552;SDS011;29153;42.696;23.218;2023-02-28T07:25:29;61.23;;;13.80;;
43552;SDS011;29153;42.696;23.218;2023-02-28T07:27:56;44.88;;;12.03;;
43552;SDS011;29153;42.696;23.218;2023-02-28T07:30:24;55.67;;;12.10;;
43552;SDS011;29153;42.696;23.218;2023-02-28T07:32:52;49.73;;;11.70;;
43552;SDS011;29153;42.696;23.218;2023-02-28T07:35:21;55.63;;;12.33;;
43552;SDS011;29153;42.696;23.218;2023-02-28T07:40:17;41.92;;;11.40;;
43552;SDS011;29153;42.696;23.218;2023-02-28T07:42:44;44.67;;;12.28;;
43552;SDS011;29153;42.696;23.218;2023-02-28T07:45:12;41.37;;;11.68;;
43552;SDS011;29153;42.696;23.218;2023-02-28T07:47:40;48.48;;;12.95;;
43552;SDS011;29153;42.696;23.218;2023-02-28T07:50:09;42.98;;;12.85;;
43552;SDS011;29153;42.696;23.218;2023-02-28T07:52:38;41.33;;;13.03;;
43552;SDS011;29153;42.696;23.218;2023-02-28T07:55:06;45.43;;;12.43;;
43552;SDS011;29153;42.696;23.218;2023-02-28T07:57:35;59.13;;;15.03;;
43552;SDS011;29153;42.696;23.218;2023-02-28T08:00:07;52.05;;;14.47;;
43552;SDS011;29153;42.696;23.218;2023-02-28T08:02:36;46.80;;;13.13;;
43552;SDS011;29153;42.696;23.218;2023-02-28T08:05:04;43.83;;;13.15;;
43552;SDS011;29153;42.696;23.218;2023-02-28T08:07:32;43.92;;;13.03;;
43552;SDS011;29153;42.696;23.218;2023-02-28T08:09:59;42.78;;;15.18;;
43552;SDS011;29153;42.696;23.218;2023-02-28T08:12:27;48.40;;;14.05;;
43552;SDS011;29153;42.696;23.218;2023-02-28T08:14:54;40.58;;;14.15;;
43552;SDS011;29153;42.696;23.218;2023-02-28T08:17:22;40.33;;;14.87;;
43552;SDS011;29153;42.696;23.218;2023-02-28T08:19:49;45.52;;;14.43;;
43552;SDS011;29153;42.696;23.218;2023-02-28T08:22:17;48.92;;;14.98;;
43552;SDS011;29153;42.696;23.218;2023-02-28T08:24:44;48.52;;;18.32;;
43552;SDS011;29153;42.696;23.218;2023-02-28T08:27:12;52.33;;;15.93;;
43552;SDS011;29153;42.696;23.218;2023-02-28T08:29:39;44.95;;;15.32;;
43552;SDS011;29153;42.696;23.218;2023-02-28T08:32:07;48.20;;;14.95;;
43552;SDS011;29153;42.696;23.218;2023-02-28T08:34:34;49.88;;;16.37;;
43552;SDS011;29153;42.696;23.218;2023-02-28T08:37:02;47.43;;;15.63;;
43552;SDS011;29153;42.696;23.218;2023-02-28T08:39:29;46.33;;;16.27;;
43552;SDS011;29153;42.696;23.218;2023-02-28T08:41:57;47.38;;;17.00;;
43552;SDS011;29153;42.696;23.218;2023-02-28T08:44:24;54.45;;;18.90;;
43552;SDS011;29153;42.696;23.218;2023-02-28T08:46:52;52.98;;;16.15;;
43552;SDS011;29153;42.696;23.218;2023-02-28T08:49:20;44.27;;;16.10;;
43552;SDS011;29153;42.696;23.218;2023-02-28T08:51:47;46.73;;;15.55;;
43552;SDS011;29153;42.696;23.218;2023-02-28T08:54:17;81.37;;;28.65;;
43552;SDS011;29153;42.696;23.218;2023-02-28T08:56:48;45.63;;;16.42;;
43552;SDS011;29153;42.696;23.218;2023-02-28T08:59:19;48.20;;;17.25;;
43552;SDS011;29153;42.696;23.218;2023-02-28T09:01:46;50.67;;;15.83;;
43552;SDS011;29153;42.696;23.218;2023-02-28T09:04:16;49.65;;;16.02;;
43552;SDS011;29153;42.696;23.218;2023-02-28T09:06:43;50.58;;;17.10;;
43552;SDS011;29153;42.696;23.218;2023-02-28T09:09:11;133.25;;;56.48;;
43552;SDS011;29153;42.696;23.218;2023-02-28T09:11:44;51.08;;;19.67;;
43552;SDS011;29153;42.696;23.218;2023-02-28T09:14:11;46.68;;;16.40;;
43552;SDS011;29153;42.696;23.218;2023-02-28T09:16:39;48.70;;;16.67;;
43552;SDS011;29153;42.696;23.218;2023-02-28T09:19:06;45.52;;;16.42;;
43552;SDS011;29153;42.696;23.218;2023-02-28T09:21:39;48.50;;;15.38;;
43552;SDS011;29153;42.696;23.218;2023-02-28T09:24:06;43.15;;;15.50;;
43552;SDS011;29153;42.696;23.218;2023-02-28T09:26:34;49.80;;;16.67;;
43552;SDS011;29153;42.696;23.218;2023-02-28T09:29:03;47.45;;;16.87;;
43552;SDS011;29153;42.696;23.218;2023-02-28T09:31:32;46.45;;;17.95;;
43552;SDS011;29153;42.696;23.218;2023-02-28T09:33:59;48.40;;;18.00;;
43552;SDS011;29153;42.696;23.218;2023-02-28T09:36:27;57.17;;;18.02;;
43552;SDS011;29153;42.696;23.218;2023-02-28T09:38:55;55.17;;;20.45;;
43552;SDS011;29153;42.696;23.218;2023-02-28T09:41:23;50.20;;;19.73;;
43552;SDS011;29153;42.696;23.218;2023-02-28T09:43:55;49.15;;;18.15;;
43552;SDS011;29153;42.696;23.218;2023-02-28T09:46:32;48.38;;;18.55;;
43552;SDS011;29153;42.696;23.218;2023-02-28T09:48:57;46.70;;;18.12;;
43552;SDS011;29153;42.696;23.218;2023-02-28T09:51:43;50.03;;;17.65;;
43552;SDS011;29153;42.696;23.218;2023-02-28T09:54:13;48.30;;;17.30;;
43552;SDS011;29153;42.696;23.218;2023-02-28T09:56:45;52.45;;;19.98;;
43552;SDS011;29153;42.696;23.218;2023-02-28T10:04:50;46.92;;;18.87;;
43552;SDS011;29153;42.696;23.218;2023-02-28T10:13:13;47.17;;;19.85;;
43552;SDS011;29153;42.696;23.218;2023-02-28T10:15:40;50.28;;;18.50;;
43552;SDS011;29153;42.696;23.218;2023-02-28T10:18:10;115.05;;;57.75;;
43552;SDS011;29153;42.696;23.218;2023-02-28T10:20:39;51.85;;;20.35;;
43552;SDS011;29153;42.696;23.218;2023-02-28T10:23:22;44.85;;;17.50;;
43552;SDS011;29153;42.696;23.218;2023-02-28T10:26:00;49.70;;;18.10;;
43552;SDS011;29153;42.696;23.218;2023-02-28T10:28:25;44.30;;;17.98;;
43552;SDS011;29153;42.696;23.218;2023-02-28T10:30:56;42.78;;;17.40;;
43552;SDS011;29153;42.696;23.218;2023-02-28T10:35:53;40.95;;;16.40;;
43552;SDS011;29153;42.696;23.218;2023-02-28T10:38:22;46.90;;;19.32;;
43552;SDS011;29153;42.696;23.218;2023-02-28T10:43:40;44.38;;;17.65;;
43552;SDS011;29153;42.696;23.218;2023-02-28T10:48:47;39.58;;;17.30;;
43552;SDS011;29153;42.696;23.218;2023-02-28T10:51:16;42.88;;;17.62;;
43552;SDS011;29153;42.696;23.218;2023-02-28T10:53:47;38.90;;;16.32;;
43552;SDS011;29153;42.696;23.218;2023-02-28T10:56:18;38.33;;;17.17;;
43552;SDS011;29153;42.696;23.218;2023-02-28T11:01:19;44.77;;;17.17;;
43552;SDS011;29153;42.696;23.218;2023-02-28T11:03:49;41.18;;;16.62;;
43552;SDS011;29153;42.696;23.218;2023-02-28T11:06:22;40.55;;;16.57;;
43552;SDS011;29153;42.696;23.218;2023-02-28T11:08:56;37.48;;;16.20;;
43552;SDS011;29153;42.696;23.218;2023-02-28T11:11:25;26.20;;;10.45;;
43552;SDS011;29153;42.696;23.218;2023-02-28T11:13:55;22.73;;;7.90;;
43552;SDS011;29153;42.696;23.218;2023-02-28T11:16:32;23.10;;;8.98;;
43552;SDS011;29153;42.696;23.218;2023-02-28T11:19:02;27.02;;;13.30;;
43552;SDS011;29153;42.696;23.218;2023-02-28T11:21:36;22.20;;;8.83;;
43552;SDS011;29153;42.696;23.218;2023-02-28T11:26:47;26.15;;;10.68;;
43552;SDS011;29153;42.696;23.218;2023-02-28T11:29:24;28.25;;;12.37;;
43552;SDS011;29153;42.696;23.218;2023-02-28T11:34:34;25.17;;;11.12;;
43552;SDS011;29153;42.696;23.218;2023-02-28T11:37:03;48.15;;;20.08;;
43552;SDS011;29153;42.696;23.218;2023-02-28T11:39:32;43.35;;;19.52;;
43552;SDS011;29153;42.696;23.218;2023-02-28T11:44:43;22.50;;;9.75;;
43552;SDS011;29153;42.696;23.218;2023-02-28T11:50:14;27.20;;;9.75;;
43552;SDS011;29153;42.696;23.218;2023-02-28T11:52:54;23.73;;;10.18;;
43552;SDS011;29153;42.696;23.218;2023-02-28T11:55:47;39.10;;;15.65;;
43552;SDS011;29153;42.696;23.218;2023-02-28T11:58:14;24.98;;;10.93;;
43552;SDS011;29153;42.696;23.218;2023-02-28T12:00:57;22.77;;;9.55;;
43552;SDS011;29153;42.696;23.218;2023-02-28T12:06:34;27.02;;;9.03;;
43552;SDS011;29153;42.696;23.218;2023-02-28T12:09:11;23.55;;;8.48;;
43552;SDS011;29153;42.696;23.218;2023-02-28T12:11:38;24.82;;;8.83;;
43552;SDS011;29153;42.696;23.218;2023-02-28T12:16:58;35.65;;;13.90;;
43552;SDS011;29153;42.696;23.218;2023-02-28T12:19:53;22.52;;;9.08;;
43552;SDS011;29153;42.696;23.218;2023-02-28T12:22:39;23.65;;;9.98;;
43552;SDS011;29153;42.696;23.218;2023-02-28T12:27:52;25.02;;;11.10;;
43552;SDS011;29153;42.696;23.218;2023-02-28T12:30:24;27.32;;;9.60;;
43552;SDS011;29153;42.696;23.218;2023-02-28T12:32:55;22.22;;;7.78;;
43552;SDS011;29153;42.696;23.218;2023-02-28T12:35:31;23.57;;;9.40;;
43552;SDS011;29153;42.696;23.218;2023-02-28T12:40:45;20.40;;;8.28;;
43552;SDS011;29153;42.696;23.218;2023-02-28T12:43:17;23.62;;;10.90;;
43552;SDS011;29153;42.696;23.218;2023-02-28T12:45:47;21.40;;;8.93;;
43552;SDS011;29153;42.696;23.218;2023-02-28T12:48:28;21.12;;;8.00;;
43552;SDS011;29153;42.696;23.218;2023-02-28T12:51:08;29.80;;;13.40;;
43552;SDS011;29153;42.696;23.218;2023-02-28T12:53:53;23.62;;;10.53;;
43552;SDS011;29153;42.696;23.218;2023-02-28T12:56:27;26.30;;;11.65;;
43552;SDS011;29153;42.696;23.218;2023-02-28T12:59:19;22.13;;;10.10;;
43552;SDS011;29153;42.696;23.218;2023-02-28T13:07:34;18.17;;;7.55;;
43552;SDS011;29153;42.696;23.218;2023-02-28T13:10:17;17.67;;;7.33;;
43552;SDS011;29153;42.696;23.218;2023-02-28T13:12:49;22.77;;;9.30;;
43552;SDS011;29153;42.696;23.218;2023-02-28T13:15:20;18.23;;;7.90;;
43552;SDS011;29153;42.696;23.218;2023-02-28T13:17:51;20.32;;;7.17;;
43552;SDS011;29153;42.696;23.218;2023-02-28T13:20:21;19.50;;;7.20;;
43552;SDS011;29153;42.696;23.218;2023-02-28T13:22:54;19.37;;;6.50;;
43552;SDS011;29153;42.696;23.218;2023-02-28T13:28:10;17.67;;;7.03;;
43552;SDS011;29153;42.696;23.218;2023-02-28T13:33:28;23.70;;;8.58;;
43552;SDS011;29153;42.696;23.218;2023-02-28T13:36:06;28.10;;;9.83;;
43552;SDS011;29153;42.696;23.218;2023-02-28T13:38:43;26.68;;;11.03;;
43552;SDS011;29153;42.696;23.218;2023-02-28T13:54:58;22.48;;;8.40;;
43552;SDS011;29153;42.696;23.218;2023-02-28T13:57:57;20.50;;;7.45;;
43552;SDS011;29153;42.696;23.218;2023-02-28T14:06:10;20.97;;;6.45;;
43552;SDS011;29153;42.696;23.218;2023-02-28T14:08:51;15.10;;;6.35;;
43552;SDS011;29153;42.696;23.218;2023-02-28T14:11:26;18.90;;;5.72;;
43552;SDS011;29153;42.696;23.218;2023-02-28T14:14:02;17.92;;;6.95;;
43552;SDS011;29153;42.696;23.218;2023-02-28T14:16:47;17.42;;;6.28;;
43552;SDS011;29153;42.696;23.218;2023-02-28T14:19:16;18.32;;;6.83;;
43552;SDS011;29153;42.696;23.218;2023-02-28T14:24:38;21.20;;;7.37;;
43552;SDS011;29153;42.696;23.218;2023-02-28T14:27:22;26.12;;;8.05;;
43552;SDS011;29153;42.696;23.218;2023-02-28T14:35:39;17.87;;;7.08;;
43552;SDS011;29153;42.696;23.218;2023-02-28T14:38:13;35.88;;;13.83;;
43552;SDS011;29153;42.696;23.218;2023-02-28T14:40:39;29.57;;;11.15;;
43552;SDS011;29153;42.696;23.218;2023-02-28T14:43:18;20.15;;;8.88;;
43552;SDS011;29153;42.696;23.218;2023-02-28T14:45:40;28.62;;;11.70;;
43552;SDS011;29153;42.696;23.218;2023-02-28T14:48:10;28.98;;;11.38;;
43552;SDS011;29153;42.696;23.218;2023-02-28T14:50:38;29.02;;;12.20;;
43552;SDS011;29153;42.696;23.218;2023-02-28T14:53:10;24.07;;;10.15;;
43552;SDS011;29153;42.696;23.218;2023-02-28T14:55:43;32.15;;;10.93;;
43552;SDS011;29153;42.696;23.218;2023-02-28T14:58:18;27.15;;;10.08;;
43552;SDS011;29153;42.696;23.218;2023-02-28T15:00:48;30.20;;;12.18;;
43552;SDS011;29153;42.696;23.218;2023-02-28T15:06:14;25.37;;;8.95;;
43552;SDS011;29153;42.696;23.218;2023-02-28T15:08:46;29.75;;;11.28;;
43552;SDS011;29153;42.696;23.218;2023-02-28T15:11:14;32.45;;;10.13;;
43552;SDS011;29153;42.696;23.218;2023-02-28T15:13:51;56.45;;;17.40;;
43552;SDS011;29153;42.696;23.218;2023-02-28T15:16:24;35.90;;;13.22;;
43552;SDS011;29153;42.696;23.218;2023-02-28T15:18:59;34.55;;;13.78;;
43552;SDS011;29153;42.696;23.218;2023-02-28T15:21:44;26.68;;;9.40;;
43552;SDS011;29153;42.696;23.218;2023-02-28T15:29:19;33.38;;;10.55;;
43552;SDS011;29153;42.696;23.218;2023-02-28T15:32:00;28.60;;;10.68;;
43552;SDS011;29153;42.696;23.218;2023-02-28T15:34:38;32.08;;;11.18;;
43552;SDS011;29153;42.696;23.218;2023-02-28T15:37:23;24.65;;;10.03;;
43552;SDS011;29153;42.696;23.218;2023-02-28T15:39:56;30.50;;;10.25;;
43552;SDS011;29153;42.696;23.218;2023-02-28T15:42:29;33.65;;;12.25;;
43552;SDS011;29153;42.696;23.218;2023-02-28T15:44:57;29.02;;;10.23;;
43552;SDS011;29153;42.696;23.218;2023-02-28T15:47:29;22.30;;;7.85;;
43552;SDS011;29153;42.696;23.218;2023-02-28T15:50:01;22.77;;;9.03;;
43552;SDS011;29153;42.696;23.218;2023-02-28T15:55:10;20.92;;;10.23;;
43552;SDS011;29153;42.696;23.218;2023-02-28T15:57:39;26.45;;;9.80;;
43552;SDS011;29153;42.696;23.218;2023-02-28T16:00:10;25.15;;;11.48;;
43552;SDS011;29153;42.696;23.218;2023-02-28T16:02:38;22.90;;;9.93;;
43552;SDS011;29153;42.696;23.218;2023-02-28T16:07:41;27.52;;;11.53;;
43552;SDS011;29153;42.696;23.218;2023-02-28T16:10:10;31.75;;;9.93;;
43552;SDS011;29153;42.696;23.218;2023-02-28T16:12:40;25.02;;;9.85;;
43552;SDS011;29153;42.696;23.218;2023-02-28T16:15:14;29.57;;;11.97;;
43552;SDS011;29153;42.696;23.218;2023-02-28T16:17:48;25.68;;;9.95;;
43552;SDS011;29153;42.696;23.218;2023-02-28T16:20:17;29.50;;;13.28;;
43552;SDS011;29153;42.696;23.218;2023-02-28T16:22:49;24.72;;;11.33;;
43552;SDS011;29153;42.696;23.218;2023-02-28T16:25:19;26.68;;;12.18;;
43552;SDS011;29153;42.696;23.218;2023-02-28T16:27:48;35.63;;;15.65;;
43552;SDS011;29153;42.696;23.218;2023-02-28T16:30:24;30.62;;;14.95;;
43552;SDS011;29153;42.696;23.218;2023-02-28T16:32:56;27.40;;;11.93;;
43552;SDS011;29153;42.696;23.218;2023-02-28T16:35:24;24.30;;;11.12;;
43552;SDS011;29153;42.696;23.218;2023-02-28T16:37:51;20.45;;;8.48;;
43552;SDS011;29153;42.696;23.218;2023-02-28T16:40:25;24.47;;;9.93;;
43552;SDS011;29153;42.696;23.218;2023-02-28T16:42:51;21.65;;;8.63;;
43552;SDS011;29153;42.696;23.218;2023-02-28T16:45:22;26.68;;;10.20;;
43552;SDS011;29153;42.696;23.218;2023-02-28T16:47:51;32.30;;;11.50;;